Time;durP1;ratioP1;P1;durP2;ratioP2;P2;SDS_P1;SDS_P2;PMS_P1;PMS_P2;Temp;Humidity;BMP_temperature;BMP_pressure;BME280_temperature;BME280_humidity;BME280_pressure;Samples;Min_cycle;Max_cycle;Signal;HPM_P1;HPM_P2
2024/04/20 04:07:04;;;;;;;0.38;0.38;;;6.50;99.90;;;;;;5708035;21;20670;-67
2024/04/20 04:09:30;;;;;;;0.40;0.40;;;6.50;99.90;;;;;;5275867;27;20230;-68
2024/04/20 04:11:55;;;;;;;0.38;0.38;;;6.50;99.90;;;;;;5278238;27;20219;-67
2024/04/20 04:14:21;;;;;;;0.40;0.40;;;6.50;99.90;;;;;;5278185;27;20324;-67
2024/04/20 04:16:47;;;;;;;0.30;0.30;;;6.50;99.90;;;;;;5277815;27;20627;-68
2024/04/20 04:19:12;;;;;;;0.37;0.37;;;6.40;99.90;;;;;;5278101;27;20332;-68
2024/04/20 04:21:38;;;;;;;0.40;0.40;;;6.40;99.90;;;;;;5278024;27;20227;-66
2024/04/20 04:24:04;;;;;;;0.30;0.30;;;6.40;99.90;;;;;;5278012;27;20264;-67
2024/04/20 04:26:29;;;;;;;0.30;0.30;;;6.40;99.90;;;;;;5277726;27;20434;-67
2024/04/20 04:28:55;;;;;;;0.30;0.30;;;6.40;99.90;;;;;;5277643;27;20343;-67
2024/04/20 04:31:24;;;;;;;0.50;0.50;;;6.40;99.90;;;;;;5276083;27;20576;-67
2024/04/20 04:33:50;;;;;;;0.40;0.40;;;6.40;99.90;;;;;;5277839;27;20335;-67
2024/04/20 04:36:15;;;;;;;0.30;0.30;;;6.40;99.90;;;;;;5276433;27;20230;-67
2024/04/20 04:38:41;;;;;;;0.30;0.30;;;6.40;99.90;;;;;;5277826;27;20265;-67
2024/04/20 04:41:09;;;;;;;0.30;0.30;;;6.40;99.90;;;;;;5277563;27;20233;-67
2024/04/20 04:43:36;;;;;;;0.30;0.30;;;6.30;99.90;;;;;;5275723;27;20227;-67
2024/04/20 04:46:02;;;;;;;0.40;0.40;;;6.30;99.90;;;;;;5277408;27;20243;-67
2024/04/20 04:48:28;;;;;;;0.40;0.40;;;6.30;99.90;;;;;;5277535;27;20294;-67
2024/04/20 04:50:56;;;;;;;0.40;0.40;;;6.30;99.90;;;;;;5277535;27;20692;-68
2024/04/20 04:53:22;;;;;;;0.35;0.35;;;6.30;99.90;;;;;;5277332;27;20450;-68
2024/04/20 04:55:48;;;;;;;0.40;0.40;;;6.30;99.90;;;;;;5275173;27;20277;-68
2024/04/20 04:58:13;;;;;;;0.40;0.40;;;6.20;99.90;;;;;;5277495;27;20258;-67
2024/04/20 05:00:39;;;;;;;0.30;0.30;;;6.20;99.90;;;;;;5277321;27;20818;-67
2024/04/20 05:03:05;;;;;;;0.30;0.30;;;6.10;99.90;;;;;;5277493;27;20269;-67
2024/04/20 05:05:33;;;;;;;0.40;0.40;;;6.10;99.90;;;;;;5277121;27;20348;-67
2024/04/20 05:07:59;;;;;;;0.40;0.40;;;6.10;99.90;;;;;;5276988;27;20785;-67
2024/04/20 05:10:27;;;;;;;0.50;0.50;;;6.00;99.90;;;;;;5277407;27;20266;-67
2024/04/20 05:12:53;;;;;;;0.30;0.30;;;6.00;99.90;;;;;;5277151;27;20560;-67
2024/04/20 05:15:18;;;;;;;0.40;0.40;;;6.00;99.90;;;;;;5275221;27;20225;-67
2024/04/20 05:17:44;;;;;;;0.30;0.30;;;6.00;99.90;;;;;;5277303;27;20226;-66
2024/04/20 05:20:12;;;;;;;0.30;0.30;;;6.00;99.90;;;;;;5278200;27;20304;-67
2024/04/20 05:22:38;;;;;;;0.30;0.30;;;6.00;99.90;;;;;;5280610;27;20226;-67
2024/04/20 05:25:04;;;;;;;0.40;0.40;;;6.20;99.90;;;;;;5280351;27;20303;-67
2024/04/20 05:27:30;;;;;;;0.32;0.32;;;6.30;99.90;;;;;;5280388;27;20243;-67
2024/04/20 05:29:56;;;;;;;0.30;0.30;;;6.40;99.90;;;;;;5280505;27;20273;-67
2024/04/20 05:32:21;;;;;;;0.30;0.30;;;6.50;99.90;;;;;;5280423;27;20257;-67
2024/04/20 05:34:47;;;;;;;0.30;0.30;;;6.50;99.90;;;;;;5280767;27;20227;-67
2024/04/20 05:37:13;;;;;;;0.30;0.30;;;6.60;99.90;;;;;;5280528;27;20231;-67
2024/04/20 05:39:38;;;;;;;0.40;0.40;;;6.60;99.90;;;;;;5280231;27;20442;-66
2024/04/20 05:42:04;;;;;;;0.30;0.30;;;6.70;99.90;;;;;;5278419;27;20673;-66
2024/04/20 05:44:30;;;;;;;0.50;0.50;;;6.80;99.90;;;;;;5280196;27;20273;-66
2024/04/20 05:46:56;;;;;;;0.30;0.30;;;7.30;99.90;;;;;;5280688;27;20465;-66
2024/04/20 05:49:21;;;;;;;0.30;0.30;;;7.70;99.90;;;;;;5280038;27;20264;-67
2024/04/20 05:51:47;;;;;;;0.67;0.67;;;8.20;99.90;;;;;;5280122;27;20551;-67
2024/04/20 05:54:13;;;;;;;0.30;0.30;;;8.60;99.90;;;;;;5279927;27;20266;-67
2024/04/20 05:56:39;;;;;;;0.30;0.30;;;9.10;99.90;;;;;;5279903;27;20949;-67
2024/04/20 05:59:05;;;;;;;0.30;0.30;;;9.60;99.90;;;;;;5280032;27;20749;-67
2024/04/20 06:01:30;;;;;;;0.30;0.30;;;10.00;99.90;;;;;;5280126;27;20230;-67
2024/04/20 06:03:57;;;;;;;0.40;0.40;;;10.30;99.90;;;;;;5280199;27;20466;-67
2024/04/20 06:06:23;;;;;;;0.30;0.30;;;10.40;99.90;;;;;;5279392;27;20265;-67
2024/04/20 06:08:48;;;;;;;0.30;0.30;;;10.30;99.90;;;;;;5280078;27;20935;-67
2024/04/20 06:11:17;;;;;;;0.30;0.30;;;10.20;99.90;;;;;;5278112;27;20273;-67
2024/04/20 06:13:42;;;;;;;0.30;0.30;;;9.90;99.90;;;;;;5279770;27;20435;-67
2024/04/20 06:16:08;;;;;;;0.30;0.30;;;9.80;99.90;;;;;;5279219;27;20533;-66
2024/04/20 06:18:34;;;;;;;0.30;0.30;;;9.80;99.90;;;;;;5280499;27;20293;-66
2024/04/20 06:20:59;;;;;;;0.30;0.30;;;9.80;99.90;;;;;;5279810;27;20266;-67
2024/04/20 06:23:25;;;;;;;0.30;0.30;;;9.90;99.90;;;;;;5277826;27;20710;-67
2024/04/20 06:25:50;;;;;;;0.30;0.30;;;9.90;99.90;;;;;;5277625;27;20280;-67
2024/04/20 06:28:16;;;;;;;0.30;0.30;;;9.70;99.90;;;;;;5279673;27;20615;-66
2024/04/20 06:30:42;;;;;;;0.30;0.30;;;9.60;99.90;;;;;;5280437;27;20237;-66
2024/04/20 06:33:10;;;;;;;0.40;0.40;;;9.50;99.90;;;;;;5279682;27;20330;-66
2024/04/20 06:35:36;;;;;;;0.30;0.30;;;9.40;99.90;;;;;;5280059;27;20218;-66
2024/04/20 06:38:01;;;;;;;0.30;0.30;;;9.40;99.90;;;;;;5279241;27;21003;-67
2024/04/20 06:40:28;;;;;;;0.30;0.30;;;9.30;99.90;;;;;;5277668;27;20935;-67
2024/04/20 06:42:56;;;;;;;0.30;0.30;;;9.50;99.90;;;;;;5279293;27;20229;-66
2024/04/20 06:45:21;;;;;;;0.30;0.30;;;9.50;99.90;;;;;;5279144;27;20496;-67
2024/04/20 06:47:50;;;;;;;0.30;0.30;;;9.40;99.90;;;;;;5279308;27;20428;-67
2024/04/20 06:50:18;;;;;;;0.30;0.30;;;9.30;99.90;;;;;;5277801;27;20220;-67
2024/04/20 06:52:44;;;;;;;0.30;0.30;;;9.20;99.90;;;;;;5279269;27;20448;-67
2024/04/20 06:55:13;;;;;;;0.40;0.40;;;9.10;99.90;;;;;;5278829;27;20973;-67
2024/04/20 06:57:40;;;;;;;0.30;0.30;;;9.10;99.90;;;;;;5279089;27;20465;-67
2024/04/20 07:00:06;;;;;;;0.30;0.30;;;9.20;99.90;;;;;;5279226;27;20491;-67
2024/04/20 07:02:32;;;;;;;0.40;0.40;;;9.30;99.90;;;;;;5279237;27;20700;-67
2024/04/20 07:04:57;;;;;;;0.40;0.40;;;9.30;99.90;;;;;;5278901;27;20508;-66
2024/04/20 07:07:23;;;;;;;0.40;0.40;;;9.40;99.90;;;;;;5276841;27;20289;-67
2024/04/20 07:09:48;;;;;;;0.40;0.40;;;9.50;99.90;;;;;;5279150;27;20365;-67
2024/04/20 07:12:15;;;;;;;0.37;0.37;;;9.50;99.90;;;;;;5278908;27;20225;-65
2024/04/20 07:14:41;;;;;;;0.30;0.30;;;9.50;99.90;;;;;;5278686;27;20226;-66
2024/04/20 07:17:06;;;;;;;0.30;0.30;;;9.50;99.90;;;;;;5278736;27;20611;-66
2024/04/20 07:19:32;;;;;;;0.30;0.30;;;9.50;99.90;;;;;;5276847;27;20229;-66
2024/04/20 07:22:01;;;;;;;0.30;0.30;;;9.50;99.90;;;;;;5278692;27;20707;-66
2024/04/20 07:24:26;;;;;;;0.30;0.30;;;9.40;99.90;;;;;;5278720;27;20304;-66
2024/04/20 07:26:52;;;;;;;0.30;0.30;;;9.30;99.90;;;;;;5278500;27;20451;-66
2024/04/20 07:29:18;;;;;;;0.30;0.30;;;9.30;99.90;;;;;;5278665;27;20219;-66
2024/04/20 07:31:45;;;;;;;0.33;0.33;;;9.20;99.90;;;;;;5278709;27;20271;-67
2024/04/20 07:34:11;;;;;;;0.30;0.30;;;9.10;99.90;;;;;;5278666;27;20230;-66
2024/04/20 07:36:37;;;;;;;0.30;0.30;;;9.10;99.90;;;;;;5276487;27;20502;-67
2024/04/20 07:39:02;;;;;;;0.30;0.30;;;9.10;99.90;;;;;;5278755;27;20306;-67
2024/04/20 07:41:28;;;;;;;0.40;0.40;;;9.00;99.90;;;;;;5278075;27;20240;-66
2024/04/20 07:43:56;;;;;;;0.30;0.30;;;9.00;99.90;;;;;;5275602;27;20590;-66
2024/04/20 07:46:21;;;;;;;0.30;0.30;;;8.90;99.90;;;;;;5276105;27;20232;-66
2024/04/20 07:48:48;;;;;;;0.30;0.30;;;8.70;99.90;;;;;;5278266;27;20467;-67
2024/04/20 07:51:14;;;;;;;0.40;0.40;;;8.60;99.90;;;;;;5278175;27;20282;-67
2024/04/20 07:53:40;;;;;;;0.30;0.30;;;8.70;99.90;;;;;;5278361;27;20480;-67
2024/04/20 07:56:06;;;;;;;0.30;0.30;;;8.90;99.90;;;;;;5278481;27;20255;-66
2024/04/20 07:58:31;;;;;;;0.30;0.30;;;9.20;99.90;;;;;;5278483;27;20217;-67
2024/04/20 08:00:57;;;;;;;0.30;0.30;;;9.40;99.90;;;;;;5278018;27;20453;-68
2024/04/20 08:03:22;;;;;;;0.30;0.30;;;9.70;99.90;;;;;;5278252;27;20263;-67
2024/04/20 08:05:48;;;;;;;0.40;0.40;;;9.70;99.90;;;;;;5278014;27;20555;-67
2024/04/20 08:08:13;;;;;;;0.30;0.30;;;9.80;99.90;;;;;;5278174;27;20228;-67
2024/04/20 08:10:39;;;;;;;0.40;0.40;;;9.80;99.90;;;;;;5278388;27;20271;-67
2024/04/20 08:13:05;;;;;;;0.40;0.40;;;10.60;99.90;;;;;;5278116;27;20262;-67
2024/04/20 08:15:30;;;;;;;0.30;0.30;;;11.50;99.90;;;;;;5277590;27;20270;-68
2024/04/20 08:17:56;;;;;;;0.30;0.20;;;12.30;99.90;;;;;;5278033;27;20217;-67
2024/04/20 08:20:22;;;;;;;0.30;0.30;;;13.10;99.90;;;;;;5276106;27;20234;-66
2024/04/20 08:22:47;;;;;;;0.30;0.30;;;14.30;97.80;;;;;;5277984;27;20315;-68
2024/04/20 08:25:13;;;;;;;0.30;0.30;;;15.80;96.90;;;;;;5277652;27;20434;-67
2024/04/20 08:27:42;;;;;;;0.50;0.30;;;16.50;92.90;;;;;;5278454;27;20231;-67
2024/04/20 08:30:08;;;;;;;0.30;0.20;;;16.20;92.10;;;;;;5277855;27;20223;-67
2024/04/20 08:32:39;;;;;;;0.30;0.30;;;15.40;90.70;;;;;;5277597;27;20566;-67
2024/04/20 08:35:05;;;;;;;0.30;0.23;;;14.40;92.10;;;;;;5277926;27;20438;-66
2024/04/20 08:37:33;;;;;;;0.30;0.30;;;13.50;93.20;;;;;;5278088;27;20478;-66
2024/04/20 08:39:58;;;;;;;0.30;0.30;;;12.80;94.20;;;;;;5277677;27;20235;-66
2024/04/20 08:42:33;;;;;;;0.40;0.40;;;12.50;94.20;;;;;;5277625;27;20936;-67
2024/04/20 08:45:01;;;;;;;0.40;0.40;;;12.60;94.80;;;;;;5277751;27;20333;-66
2024/04/20 08:47:30;;;;;;;0.30;0.30;;;13.30;93.90;;;;;;5276701;27;20980;-66
2024/04/20 08:49:58;;;;;;;0.30;0.20;;;13.70;91.40;;;;;;5277202;27;20426;-66
2024/04/20 08:52:26;;;;;;;0.33;0.33;;;13.50;90.90;;;;;;5277334;27;20446;-67
2024/04/20 08:54:52;;;;;;;0.30;0.30;;;13.20;92.80;;;;;;5277497;27;20478;-68
2024/04/20 08:57:22;;;;;;;0.30;0.30;;;12.70;94.30;;;;;;5278708;27;20889;-67
2024/04/20 08:59:49;;;;;;;0.30;0.30;;;12.30;93.90;;;;;;5280689;27;20971;-67
2024/04/20 09:02:23;;;;;;;0.30;0.30;;;12.00;94.40;;;;;;5280065;27;20453;-68
2024/04/20 09:04:49;;;;;;;0.30;0.30;;;12.20;95.20;;;;;;5280449;27;20470;-67
2024/04/20 09:07:18;;;;;;;0.30;0.30;;;12.80;95.10;;;;;;5280431;27;20438;-68
2024/04/20 09:09:45;;;;;;;0.30;0.30;;;12.70;94.30;;;;;;5280593;27;20422;-67
2024/04/20 09:12:13;;;;;;;0.30;0.30;;;12.30;94.70;;;;;;5280478;27;20765;-67
2024/04/20 09:14:39;;;;;;;0.30;0.30;;;12.00;95.80;;;;;;5278362;27;20495;-68
2024/04/20 09:17:04;;;;;;;0.40;0.40;;;11.70;96.10;;;;;;5278746;27;20952;-67
2024/04/20 09:19:30;;;;;;;0.30;0.30;;;11.40;96.40;;;;;;5280368;27;20353;-66
2024/04/20 09:22:09;;;;;;;0.40;0.40;;;11.10;96.60;;;;;;5280859;27;20815;-66
2024/04/20 09:24:35;;;;;;;0.50;0.50;;;10.90;97.40;;;;;;5280022;27;20219;-74
2024/04/20 09:27:05;;;;;;;0.30;0.30;;;10.80;97.20;;;;;;5278425;27;20557;-69
2024/04/20 09:29:31;;;;;;;0.30;0.30;;;10.80;97.10;;;;;;5280181;27;20482;-67
2024/04/20 09:32:06;;;;;;;0.30;0.30;;;11.00;96.20;;;;;;5280413;27;20542;-67
2024/04/20 09:34:34;;;;;;;0.50;0.50;;;11.00;95.60;;;;;;5280302;27;20422;-68
2024/04/20 09:37:00;;;;;;;0.40;0.40;;;11.00;96.40;;;;;;5280228;27;20489;-68
2024/04/20 09:39:28;;;;;;;0.30;0.30;;;11.10;97.10;;;;;;5280312;27;20453;-69
2024/04/20 09:42:01;;;;;;;0.30;0.30;;;11.50;97.00;;;;;;5280245;27;20446;-67
2024/04/20 09:44:30;;;;;;;0.30;0.30;;;12.30;96.40;;;;;;5278205;27;20916;-67
2024/04/20 09:46:57;;;;;;;0.30;0.30;;;12.90;95.00;;;;;;5279697;27;20524;-67
2024/04/20 09:49:30;;;;;;;0.30;0.30;;;12.90;93.70;;;;;;5280098;27;20974;-67
2024/04/20 09:52:09;;;;;;;0.30;0.30;;;12.60;92.70;;;;;;5278270;27;20955;-67
2024/04/20 09:54:48;;;;;;;1.63;0.43;;;12.20;92.30;;;;;;5279510;27;20622;-67
2024/04/20 09:57:16;;;;;;;0.30;0.30;;;11.90;93.80;;;;;;5279978;27;20443;-66
2024/04/20 09:59:42;;;;;;;0.30;0.30;;;11.60;93.90;;;;;;5278052;27;21047;-66
2024/04/20 10:02:09;;;;;;;0.30;0.30;;;11.40;94.60;;;;;;5279913;27;20541;-67
2024/04/20 10:04:39;;;;;;;0.30;0.30;;;11.10;96.00;;;;;;5279515;27;20504;-67
2024/04/20 10:07:06;;;;;;;0.30;0.30;;;10.80;97.30;;;;;;5278224;27;20457;-67
2024/04/20 10:09:34;;;;;;;0.30;0.30;;;10.60;98.30;;;;;;5279512;27;20476;-68
2024/04/20 10:12:00;;;;;;;0.30;0.30;;;10.50;97.80;;;;;;5279647;27;20437;-66
2024/04/20 10:14:28;;;;;;;0.30;0.30;;;10.50;97.70;;;;;;5279869;27;20446;-67
2024/04/20 10:16:54;;;;;;;0.57;0.57;;;10.70;97.60;;;;;;5279783;27;20291;-68
2024/04/20 10:19:22;;;;;;;0.40;0.40;;;11.20;97.00;;;;;;5278726;27;20470;-68
2024/04/20 10:22:32;;;;;;;0.47;0.47;;;12.00;96.00;;;;;;5280231;27;20471;-68
2024/04/20 10:28:06;;;;;;;0.30;0.30;;;14.90;92.90;;;;;;5278069;27;20560;-67
2024/04/20 10:30:31;;;;;;;0.30;0.30;;;16.00;90.20;;;;;;5279662;27;20515;-68
2024/04/20 10:33:07;;;;;;;0.30;0.30;;;16.80;86.60;;;;;;5279299;27;20458;-68
2024/04/20 10:35:40;;;;;;;2.30;0.60;;;17.60;84.00;;;;;;5279408;27;20578;-68
2024/04/20 10:38:30;;;;;;;0.30;0.20;;;17.30;82.20;;;;;;5278217;27;20570;-68
2024/04/20 10:41:21;;;;;;;0.30;0.30;;;16.80;82.00;;;;;;5278370;27;20485;-66
2024/04/20 10:44:28;;;;;;;;;;;;;;;;;;;;;
2024/04/20 10:46:54;;;;;;;0.30;0.20;;;15.80;84.60;;;;;;5279235;27;20492;-67
2024/04/20 10:49:24;;;;;;;0.50;0.40;;;15.30;86.10;;;;;;5279386;27;20438;-67
2024/04/20 10:51:58;;;;;;;0.30;0.30;;;14.90;84.60;;;;;;5280569;27;20681;-67
2024/04/20 10:57:57;;;;;;;0.30;0.30;;;14.50;87.30;;;;;;5246489;27;20542;-67
2024/04/20 11:00:38;;;;;;;0.30;0.30;;;14.30;86.70;;;;;;5279325;27;20471;-68
2024/04/20 11:03:33;;;;;;;0.30;0.30;;;14.20;87.30;;;;;;5279785;27;20426;-68
2024/04/20 11:06:00;;;;;;;0.30;0.30;;;14.00;85.60;;;;;;5254518;27;20549;-68
2024/04/20 11:08:26;;;;;;;0.30;0.20;;;13.80;87.00;;;;;;5278816;27;20529;-68
2024/04/20 11:11:02;;;;;;;0.30;0.30;;;13.70;88.70;;;;;;5278986;27;20612;-67
2024/04/20 11:13:29;;;;;;;0.30;0.30;;;13.40;89.70;;;;;;5278693;27;20448;-68
2024/04/20 11:15:55;;;;;;;0.30;0.30;;;13.20;89.90;;;;;;5278348;27;20966;-67
2024/04/20 11:18:20;;;;;;;0.30;0.20;;;13.10;90.50;;;;;;5277543;27;20460;-67
2024/04/20 11:20:46;;;;;;;0.30;0.20;;;13.00;91.00;;;;;;5278578;27;20512;-67
2024/04/20 11:23:15;;;;;;;0.30;0.30;;;13.00;90.50;;;;;;5278506;27;20271;-67
2024/04/20 11:25:52;;;;;;;0.30;0.30;;;13.10;91.10;;;;;;5278250;27;20465;-67
2024/04/20 11:28:18;;;;;;;0.30;0.20;;;13.20;90.20;;;;;;5278696;27;20442;-67
2024/04/20 11:30:46;;;;;;;0.30;0.30;;;13.50;90.80;;;;;;5278610;27;20453;-67
2024/04/20 11:33:13;;;;;;;0.30;0.30;;;13.70;90.40;;;;;;5278581;27;20262;-66
2024/04/20 11:35:44;;;;;;;0.30;0.30;;;13.80;91.00;;;;;;5278015;27;20529;-67
2024/04/20 11:38:14;;;;;;;0.30;0.30;;;13.80;91.00;;;;;;5278671;27;20686;-67
2024/04/20 11:40:48;;;;;;;0.30;0.23;;;13.90;90.30;;;;;;5278224;27;20426;-67
2024/04/20 11:43:24;;;;;;;0.93;0.93;;;13.70;87.90;;;;;;5278917;27;20487;-69
2024/04/20 11:45:54;;;;;;;0.30;0.30;;;13.30;90.30;;;;;;5278267;27;20862;-68
2024/04/20 11:48:30;;;;;;;0.30;0.20;;;13.10;90.00;;;;;;5278516;27;20799;-68
2024/04/20 11:51:08;;;;;;;0.30;0.27;;;13.00;90.20;;;;;;5277911;27;20523;-69
2024/04/20 11:56:23;;;;;;;0.30;0.27;;;13.00;92.00;;;;;;5278046;27;20519;-67
2024/04/20 11:58:52;;;;;;;0.80;0.80;;;13.00;91.00;;;;;;5279211;27;20454;-67
2024/04/20 12:01:18;;;;;;;0.30;0.30;;;12.90;92.00;;;;;;5278377;27;20496;-67
2024/04/20 12:03:45;;;;;;;0.30;0.30;;;12.90;92.20;;;;;;5278190;27;20576;-68
2024/04/20 12:06:12;;;;;;;0.30;0.30;;;12.90;92.30;;;;;;5277604;27;20530;-68
2024/04/20 12:08:40;;;;;;;0.30;0.30;;;12.90;92.20;;;;;;5276041;27;20460;-67
2024/04/20 12:11:06;;;;;;;0.30;0.30;;;12.90;91.60;;;;;;5277979;27;20448;-66
2024/04/20 12:13:32;;;;;;;0.30;0.30;;;13.00;91.60;;;;;;5278007;27;20474;-66
2024/04/20 12:15:58;;;;;;;0.30;0.20;;;13.00;91.90;;;;;;5277682;27;20244;-67
2024/04/20 12:18:23;;;;;;;0.30;0.30;;;13.10;91.60;;;;;;5276252;27;20310;-66
2024/04/20 12:20:50;;;;;;;0.87;0.60;;;13.00;91.60;;;;;;5277964;27;20807;-66
2024/04/20 12:23:16;;;;;;;0.40;0.40;;;12.80;91.20;;;;;;5276326;27;20263;-67
2024/04/20 12:25:48;;;;;;;0.30;0.30;;;12.70;90.70;;;;;;5277802;27;20443;-67
2024/04/20 12:28:17;;;;;;;0.30;0.30;;;12.50;90.90;;;;;;5277446;27;20279;-67
2024/04/20 12:30:43;;;;;;;0.30;0.30;;;12.60;91.20;;;;;;5277995;27;20839;-67
2024/04/20 12:33:10;;;;;;;0.30;0.30;;;12.60;88.90;;;;;;5278010;27;20442;-67
2024/04/20 12:35:36;;;;;;;0.30;0.30;;;12.70;90.30;;;;;;5277202;27;20472;-68
2024/04/20 12:38:09;;;;;;;0.70;0.57;;;12.90;90.70;;;;;;5277666;27;20731;-68
2024/04/20 12:40:35;;;;;;;0.30;0.30;;;13.00;91.10;;;;;;5277360;27;20862;-68
2024/04/20 12:43:00;;;;;;;0.30;0.30;;;13.00;91.50;;;;;;5277630;27;20425;-68
2024/04/20 12:45:29;;;;;;;0.37;0.37;;;13.20;91.50;;;;;;5277169;27;20216;-68
2024/04/20 12:48:02;;;;;;;0.30;0.30;;;13.30;90.40;;;;;;5277478;27;20802;-67
2024/04/20 12:50:28;;;;;;;0.50;0.50;;;13.50;90.20;;;;;;5277541;27;20543;-67
2024/04/20 12:52:54;;;;;;;0.30;0.30;;;13.70;91.20;;;;;;5277419;27;20453;-68
2024/04/20 12:55:21;;;;;;;0.30;0.30;;;13.80;87.30;;;;;;5277093;27;20220;-68
2024/04/20 12:57:47;;;;;;;0.30;0.30;;;13.60;83.60;;;;;;5277353;27;20222;-67
2024/04/20 13:00:14;;;;;;;0.30;0.30;;;13.60;87.50;;;;;;5277576;27;20566;-67
2024/04/20 13:02:40;;;;;;;0.30;0.30;;;13.70;89.00;;;;;;5277529;27;20493;-68
2024/04/20 13:05:06;;;;;;;0.30;0.20;;;13.70;88.20;;;;;;5277079;27;20789;-67
2024/04/20 13:07:32;;;;;;;0.30;0.30;;;13.50;85.90;;;;;;5276774;27;20238;-68
2024/04/20 13:09:58;;;;;;;0.30;0.30;;;13.40;87.30;;;;;;5276599;27;21017;-67
2024/04/20 13:12:25;;;;;;;0.30;0.30;;;13.00;86.40;;;;;;5276990;27;20266;-68
2024/04/20 13:14:50;;;;;;;0.30;0.30;;;12.90;88.60;;;;;;5276753;27;20489;-67
2024/04/20 13:17:17;;;;;;;0.30;0.30;;;12.80;89.60;;;;;;5275157;27;20470;-69
2024/04/20 13:19:45;;;;;;;0.30;0.30;;;12.70;88.80;;;;;;5277487;27;20450;-67
2024/04/20 13:22:10;;;;;;;0.30;0.30;;;12.60;89.60;;;;;;5276826;27;20484;-66
2024/04/20 13:24:37;;;;;;;0.30;0.30;;;12.60;88.40;;;;;;5276034;27;20446;-67
2024/04/20 13:27:03;;;;;;;0.30;0.30;;;12.70;88.30;;;;;;5276222;27;20462;-67
2024/04/20 13:29:29;;;;;;;0.30;0.30;;;12.70;86.10;;;;;;5274747;27;21012;-67
2024/04/20 13:31:54;;;;;;;0.30;0.30;;;12.70;87.00;;;;;;5276550;27;20908;-67
2024/04/20 13:34:20;;;;;;;0.30;0.30;;;12.70;87.10;;;;;;5276444;27;20235;-67
2024/04/20 13:36:46;;;;;;;0.30;0.30;;;12.70;86.50;;;;;;5275966;27;20238;-67
2024/04/20 13:39:13;;;;;;;0.30;0.30;;;12.70;87.40;;;;;;5276383;27;20265;-68
2024/04/20 13:41:40;;;;;;;0.30;0.30;;;12.70;86.30;;;;;;5278436;27;20446;-68
2024/04/20 13:44:06;;;;;;;0.40;0.40;;;12.70;86.70;;;;;;5280086;27;20497;-68
2024/04/20 13:46:32;;;;;;;0.30;0.30;;;12.50;86.20;;;;;;5278942;27;21099;-66
2024/04/20 13:48:58;;;;;;;0.30;0.30;;;12.40;88.00;;;;;;5279305;27;20457;-66
2024/04/20 13:51:25;;;;;;;0.37;0.37;;;12.30;89.80;;;;;;5279650;27;20346;-69
2024/04/20 13:53:54;;;;;;;0.40;0.40;;;12.40;90.20;;;;;;5278467;27;20262;-67
2024/04/20 13:56:23;;;;;;;0.30;0.30;;;12.30;86.50;;;;;;5277235;27;20473;-67
2024/04/20 13:58:49;;;;;;;0.30;0.30;;;12.20;88.80;;;;;;5280615;27;20508;-68
2024/04/20 14:01:14;;;;;;;0.30;0.30;;;12.20;86.30;;;;;;5279561;27;20784;-69
2024/04/20 14:03:47;;;;;;;0.40;0.40;;;12.20;86.30;;;;;;5279360;27;20491;-68
2024/04/20 14:06:13;;;;;;;0.30;0.30;;;12.30;89.10;;;;;;5278861;27;20235;-68
2024/04/20 14:08:38;;;;;;;0.30;0.30;;;12.30;84.20;;;;;;5277134;27;20461;-67
2024/04/20 14:11:04;;;;;;;0.30;0.30;;;12.30;86.00;;;;;;5279280;27;20265;-67
2024/04/20 14:13:30;;;;;;;0.30;0.30;;;12.20;86.20;;;;;;5277458;27;20370;-66
2024/04/20 14:15:59;;;;;;;0.30;0.30;;;12.20;84.90;;;;;;5278416;27;20613;-67
2024/04/20 14:18:28;;;;;;;0.30;0.30;;;12.00;86.20;;;;;;5278521;27;20222;-67
2024/04/20 14:20:54;;;;;;;0.30;0.30;;;11.90;87.00;;;;;;5278519;27;20521;-67
2024/04/20 14:23:21;;;;;;;0.30;0.30;;;12.00;89.70;;;;;;5279501;27;20576;-68
2024/04/20 14:25:55;;;;;;;0.30;0.30;;;12.00;89.20;;;;;;5279007;27;20473;-68
2024/04/20 14:28:21;;;;;;;0.30;0.30;;;12.00;88.10;;;;;;5278950;27;20509;-67
2024/04/20 14:30:55;;;;;;;0.30;0.30;;;11.90;89.00;;;;;;5278881;27;20837;-68
2024/04/20 14:33:21;;;;;;;0.40;0.40;;;12.00;89.20;;;;;;5278841;27;20227;-66
2024/04/20 14:35:46;;;;;;;0.30;0.20;;;11.90;86.90;;;;;;5277882;27;20521;-67
2024/04/20 14:38:12;;;;;;;0.30;0.30;;;11.90;90.70;;;;;;5278666;27;20222;-67
2024/04/20 14:40:37;;;;;;;0.30;0.30;;;11.90;90.40;;;;;;5278843;27;20365;-67
2024/04/20 14:43:16;;;;;;;;;;;;;;;;;;;;;
2024/04/20 14:45:57;;;;;;;0.30;0.30;;;12.00;90.60;;;;;;5278604;27;20229;-67
2024/04/20 14:48:26;;;;;;;0.30;0.30;;;11.90;89.90;;;;;;5280157;27;20494;-68
2024/04/20 14:51:12;;;;;;;;;;;;;;;;;;;;;
2024/04/20 14:53:46;;;;;;;0.40;0.40;;;11.80;90.40;;;;;;5277825;27;20445;-67
2024/04/20 14:56:41;;;;;;;0.30;0.30;;;11.70;92.30;;;;;;5278806;27;20443;-70
2024/04/20 14:59:09;;;;;;;0.30;0.30;;;11.40;93.90;;;;;;5275917;27;20464;-68
2024/04/20 15:01:37;;;;;;;0.30;0.30;;;11.20;94.80;;;;;;5278026;27;20506;-68
2024/04/20 15:04:10;;;;;;;2.10;0.70;;;11.00;95.60;;;;;;5279406;27;20505;-67
2024/04/20 15:06:47;;;;;;;0.33;0.33;;;10.70;95.90;;;;;;5333508;21;20501;-68
2024/04/20 15:09:37;;;;;;;0.30;0.30;;;10.60;97.20;;;;;;5279192;27;20446;-68
2024/04/20 15:18:07;;;;;;;0.30;0.30;;;11.10;98.80;;;;;;5278390;21;20553;-68
2024/04/20 15:21:04;;;;;;;0.30;0.30;;;11.30;97.10;;;;;;5277271;27;20955;-69
2024/04/20 15:23:30;;;;;;;0.30;0.30;;;11.30;96.00;;;;;;5264245;27;20248;-68
2024/04/20 15:26:21;;;;;;;0.30;0.30;;;11.20;96.10;;;;;;5278342;27;21066;-70
2024/04/20 15:28:49;;;;;;;0.30;0.30;;;11.20;96.00;;;;;;5276204;27;20473;-69
2024/04/20 15:31:17;;;;;;;0.30;0.30;;;11.10;95.90;;;;;;5277396;27;20454;-68
2024/04/20 15:33:43;;;;;;;0.30;0.30;;;11.00;95.90;;;;;;5278449;27;20471;-68
2024/04/20 15:36:09;;;;;;;0.30;0.30;;;10.90;95.70;;;;;;5278443;27;20471;-69
2024/04/20 15:38:34;;;;;;;0.30;0.30;;;10.90;95.70;;;;;;5276675;27;20262;-69
2024/04/20 15:41:00;;;;;;;0.30;0.30;;;10.80;95.50;;;;;;5278711;27;20235;-68
2024/04/20 15:43:26;;;;;;;0.30;0.30;;;10.80;95.90;;;;;;5278678;27;20214;-68
2024/04/20 15:45:53;;;;;;;0.40;0.40;;;10.70;95.00;;;;;;5278330;27;20696;-68
2024/04/20 15:48:24;;;;;;;0.30;0.30;;;10.70;95.20;;;;;;5278339;27;20233;-69
2024/04/20 15:50:56;;;;;;;0.33;0.33;;;10.80;95.40;;;;;;5278453;27;20451;-69
2024/04/20 15:53:23;;;;;;;0.30;0.30;;;10.70;95.70;;;;;;5276420;27;20866;-69
2024/04/20 15:56:02;;;;;;;0.30;0.30;;;10.80;96.10;;;;;;5277979;27;20492;-69
2024/04/20 15:58:29;;;;;;;0.30;0.30;;;10.90;96.30;;;;;;5277691;27;20495;-69
2024/04/20 16:00:54;;;;;;;0.30;0.30;;;10.90;96.60;;;;;;5278169;27;20533;-69
2024/04/20 16:03:20;;;;;;;0.30;0.30;;;11.00;96.70;;;;;;5277719;27;20924;-68
2024/04/20 16:05:45;;;;;;;0.30;0.30;;;11.10;96.80;;;;;;5277828;27;20383;-68
2024/04/20 16:08:11;;;;;;;0.30;0.30;;;11.10;97.60;;;;;;5278963;27;20220;-68
2024/04/20 16:10:37;;;;;;;0.37;0.37;;;11.20;97.70;;;;;;5276308;27;20257;-68
2024/04/20 16:13:02;;;;;;;0.33;0.33;;;11.30;98.30;;;;;;5278230;27;20544;-68
2024/04/20 16:15:29;;;;;;;0.60;0.60;;;11.30;97.90;;;;;;5277946;27;20259;-70
2024/04/20 16:17:55;;;;;;;0.30;0.30;;;11.30;98.40;;;;;;5277817;27;20276;-68
2024/04/20 16:20:21;;;;;;;0.30;0.30;;;11.40;98.40;;;;;;5278091;27;20519;-68
2024/04/20 16:22:47;;;;;;;0.37;0.37;;;11.30;98.50;;;;;;5276147;27;20501;-68
2024/04/20 16:25:14;;;;;;;0.30;0.30;;;11.30;99.50;;;;;;5277705;27;20761;-68
2024/04/20 16:27:40;;;;;;;0.40;0.40;;;11.30;99.40;;;;;;5277374;27;20243;-68
2024/04/20 16:30:06;;;;;;;0.30;0.30;;;11.20;99.40;;;;;;5277701;27;20452;-68
2024/04/20 16:32:32;;;;;;;0.30;0.30;;;11.10;99.50;;;;;;5277467;27;20243;-70
2024/04/20 16:34:57;;;;;;;0.30;0.30;;;10.60;98.90;;;;;;5277463;27;20444;-69
2024/04/20 16:37:23;;;;;;;0.30;0.30;;;10.20;99.70;;;;;;5277173;27;20741;-69
2024/04/20 16:39:48;;;;;;;0.30;0.30;;;9.70;99.90;;;;;;5278617;27;20702;-68
2024/04/20 16:42:15;;;;;;;0.33;0.33;;;9.30;99.90;;;;;;5277580;27;20288;-69
2024/04/20 16:44:41;;;;;;;0.40;0.40;;;9.20;99.90;;;;;;5277228;27;20222;-69
2024/04/20 16:47:06;;;;;;;0.30;0.30;;;9.00;99.90;;;;;;5277630;27;20328;-68
2024/04/20 16:49:35;;;;;;;0.30;0.30;;;8.80;99.90;;;;;;5277361;27;20220;-69
2024/04/20 16:52:01;;;;;;;0.30;0.30;;;8.60;99.90;;;;;;5277418;27;20554;-68
2024/04/20 16:54:27;;;;;;;0.30;0.30;;;8.40;99.90;;;;;;5276952;27;20741;-68
2024/04/20 16:56:52;;;;;;;0.30;0.30;;;8.20;99.90;;;;;;5275946;27;20231;-69
2024/04/20 16:59:18;;;;;;;0.30;0.30;;;8.10;99.90;;;;;;5276181;27;20382;-68
2024/04/20 17:01:43;;;;;;;0.30;0.30;;;8.00;99.90;;;;;;5277738;27;20215;-67
2024/04/20 17:04:09;;;;;;;0.40;0.40;;;7.90;99.90;;;;;;5277467;27;20270;-69
2024/04/20 17:06:34;;;;;;;0.40;0.40;;;7.70;99.90;;;;;;5276750;27;20226;-68
2024/04/20 17:09:00;;;;;;;0.37;0.37;;;7.50;99.90;;;;;;5276694;27;20680;-67
2024/04/20 17:11:26;;;;;;;0.40;0.40;;;7.30;99.90;;;;;;5277026;27;20265;-68
2024/04/20 17:13:51;;;;;;;0.30;0.30;;;7.20;99.90;;;;;;5277008;27;20235;-68
2024/04/20 17:16:19;;;;;;;0.30;0.30;;;7.10;99.90;;;;;;5278284;27;20333;-68
2024/04/20 17:18:45;;;;;;;0.30;0.30;;;6.90;99.90;;;;;;5280222;27;20244;-68